createdAt,value
2023-05-19T00:01:44.120Z,79.53
2023-05-19T00:04:12.675Z,79.70
2023-05-19T00:06:41.665Z,79.93
2023-05-19T00:09:09.701Z,80.19
2023-05-19T00:11:37.627Z,80.22
2023-05-19T00:14:08.741Z,80.21
2023-05-19T00:16:36.429Z,80.20
2023-05-19T00:19:04.191Z,80.18
2023-05-19T00:21:31.545Z,80.17
2023-05-19T00:23:58.674Z,80.05
2023-05-19T00:26:27.403Z,80.10
2023-05-19T00:28:56.553Z,79.95
2023-05-19T00:31:23.649Z,79.85
2023-05-19T00:33:50.721Z,79.82
2023-05-19T00:36:17.731Z,80.08
2023-05-19T00:38:44.745Z,80.36
2023-05-19T00:41:12.537Z,80.75
2023-05-19T00:43:39.625Z,81.03
2023-05-19T00:46:07.693Z,81.26
2023-05-19T00:48:35.186Z,81.58
2023-05-19T00:51:04.906Z,81.65
2023-05-19T00:53:35.324Z,81.85
2023-05-19T00:56:02.473Z,81.82
2023-05-19T00:58:30.514Z,81.93
2023-05-19T01:01:03.697Z,81.99
2023-05-19T01:03:35.766Z,82.18
2023-05-19T01:06:07.522Z,82.42
2023-05-19T01:08:38.261Z,82.76
2023-05-19T01:11:06.932Z,82.96
2023-05-19T01:13:34.919Z,83.17
2023-05-19T01:16:01.940Z,83.10
2023-05-19T01:18:56.511Z,83.13
2023-05-19T01:21:45.411Z,83.24
2023-05-19T01:24:45.579Z,83.34
2023-05-19T01:27:38.282Z,83.41
2023-05-19T01:30:22.513Z,83.52
2023-05-19T01:32:49.595Z,83.21
2023-05-19T01:35:16.751Z,83.20
2023-05-19T01:37:45.491Z,83.03
2023-05-19T01:40:13.029Z,83.15
2023-05-19T01:42:40.217Z,83.09
2023-05-19T01:45:10.585Z,83.11
2023-05-19T01:47:43.922Z,82.96
2023-05-19T01:50:11.507Z,82.55
2023-05-19T01:52:38.697Z,82.20
2023-05-19T01:55:06.414Z,81.81
2023-05-19T01:57:39.537Z,81.39
2023-05-19T02:00:16.853Z,81.15
2023-05-19T02:03:13.996Z,80.88
2023-05-19T02:05:48.261Z,80.79
2023-05-19T02:08:20.804Z,80.85
2023-05-19T02:10:52.291Z,80.98
2023-05-19T02:13:21.563Z,81.26
2023-05-19T02:15:48.818Z,81.25
2023-05-19T02:18:18.076Z,81.58
2023-05-19T02:20:49.962Z,81.49
2023-05-19T02:23:17.571Z,81.47
2023-05-19T02:25:44.683Z,81.43
2023-05-19T02:28:11.900Z,81.35
2023-05-19T02:30:38.984Z,81.42
2023-05-19T02:33:06.776Z,81.35
2023-05-19T02:35:34.131Z,81.19
2023-05-19T02:38:01.320Z,80.85
2023-05-19T02:40:28.572Z,80.91
2023-05-19T02:42:55.634Z,80.77
2023-05-19T02:45:22.956Z,80.29
2023-05-19T02:47:50.034Z,79.88
2023-05-19T02:50:17.302Z,79.24
2023-05-19T02:52:44.362Z,78.72
2023-05-19T02:55:17.125Z,78.27
2023-05-19T02:57:44.291Z,77.75
2023-05-19T03:00:12.129Z,77.46
2023-05-19T03:02:40.008Z,77.10
2023-05-19T03:05:08.714Z,76.62
2023-05-19T03:07:36.390Z,76.47
2023-05-19T03:10:06.941Z,76.03
2023-05-19T03:12:34.144Z,75.73
2023-05-19T03:15:01.192Z,75.19
2023-05-19T03:17:33.947Z,74.91
2023-05-19T03:20:01.692Z,74.37
2023-05-19T03:22:28.787Z,74.22
2023-05-19T03:24:56.092Z,74.30
2023-05-19T03:27:23.251Z,74.36
2023-05-19T03:29:50.942Z,74.49
2023-05-19T03:32:18.077Z,74.26
2023-05-19T03:34:46.154Z,73.87
2023-05-19T03:37:13.377Z,73.57
2023-05-19T03:39:40.710Z,73.28
2023-05-19T03:42:07.984Z,73.12
2023-05-19T03:44:35.508Z,73.00
2023-05-19T03:47:02.583Z,72.89
2023-05-19T03:49:54.722Z,72.71
2023-05-19T03:52:51.035Z,72.45
2023-05-19T03:55:30.087Z,72.22
2023-05-19T03:57:57.470Z,71.63
2023-05-19T04:00:24.683Z,71.11
2023-05-19T04:02:52.038Z,70.55
2023-05-19T04:05:19.280Z,70.08
2023-05-19T04:07:46.965Z,69.54
2023-05-19T04:10:14.038Z,69.39
2023-05-19T04:12:41.115Z,69.28
2023-05-19T04:15:11.563Z,68.59
2023-05-19T04:17:38.688Z,67.76
2023-05-19T04:20:06.800Z,66.97
2023-05-19T04:22:33.820Z,66.64
2023-05-19T04:25:01.102Z,65.85
2023-05-19T04:27:30.195Z,65.21
2023-05-19T04:29:58.329Z,64.75
2023-05-19T04:32:25.947Z,64.30
2023-05-19T04:34:53.520Z,63.45
2023-05-19T04:37:24.367Z,63.56
2023-05-19T04:39:52.457Z,63.49
2023-05-19T04:42:19.901Z,62.84
2023-05-19T04:44:49.484Z,62.48
2023-05-19T04:47:16.781Z,62.05
2023-05-19T04:49:44.468Z,62.05
2023-05-19T04:52:11.894Z,61.47
2023-05-19T04:54:40.028Z,60.45
2023-05-19T04:57:07.386Z,59.92
2023-05-19T04:59:37.152Z,59.26
2023-05-19T05:02:06.023Z,59.13
2023-05-19T05:04:33.741Z,58.73
2023-05-19T05:07:01.508Z,58.46
2023-05-19T05:09:29.101Z,58.77
2023-05-19T05:11:57.728Z,58.74
2023-05-19T05:14:25.676Z,59.22
2023-05-19T05:16:54.119Z,59.34
2023-05-19T05:19:23.979Z,59.13
2023-05-19T05:21:52.314Z,59.03
2023-05-19T05:24:20.476Z,58.07
2023-05-19T05:26:51.894Z,57.41
2023-05-19T05:29:19.898Z,56.84
2023-05-19T05:31:46.953Z,56.35
2023-05-19T05:34:14.102Z,55.98
2023-05-19T05:36:41.466Z,54.95
2023-05-19T05:39:09.419Z,54.85
2023-05-19T05:41:36.792Z,53.88
2023-05-19T05:44:10.724Z,54.08
2023-05-19T05:46:39.305Z,53.75
2023-05-19T05:49:07.078Z,53.47
2023-05-19T05:51:34.865Z,52.49
2023-05-19T05:54:02.415Z,52.38
2023-05-19T05:56:37.113Z,52.19
2023-05-19T05:59:06.012Z,51.93
2023-05-19T06:01:35.496Z,51.61
2023-05-19T06:04:03.431Z,51.56
2023-05-19T06:06:31.444Z,51.19
2023-05-19T06:08:59.555Z,51.51
2023-05-19T06:11:28.872Z,51.23
2023-05-19T06:13:57.352Z,51.12
2023-05-19T06:16:51.118Z,50.49
2023-05-19T06:19:20.163Z,48.02
2023-05-19T06:21:48.525Z,45.76
2023-05-19T06:24:16.681Z,44.10
2023-05-19T06:26:45.382Z,43.81
2023-05-19T06:29:12.579Z,43.52
2023-05-19T06:31:40.040Z,42.28
2023-05-19T06:34:12.807Z,41.59
2023-05-19T06:36:41.677Z,41.11
2023-05-19T06:39:09.156Z,40.50
2023-05-19T06:41:36.471Z,40.03
2023-05-19T06:44:04.429Z,39.63
2023-05-19T06:46:33.706Z,39.64
2023-05-19T06:49:01.423Z,39.70
2023-05-19T06:51:32.414Z,39.60
2023-05-19T06:54:00.365Z,39.07
2023-05-19T06:56:28.368Z,38.42
2023-05-19T06:58:56.361Z,38.04
2023-05-19T07:01:28.119Z,38.29
2023-05-19T07:03:55.683Z,37.95
2023-05-19T07:06:23.136Z,37.09
2023-05-19T07:08:50.980Z,35.97
2023-05-19T07:11:19.222Z,35.65
2023-05-19T07:13:47.726Z,35.85
2023-05-19T07:16:18.213Z,36.00
2023-05-19T07:18:45.405Z,35.75
2023-05-19T07:21:12.451Z,35.60
2023-05-19T07:23:39.664Z,35.54
2023-05-19T07:26:06.705Z,34.68
2023-05-19T07:28:34.637Z,34.91
2023-05-19T07:31:01.667Z,35.30
2023-05-19T07:33:28.863Z,35.29
2023-05-19T07:35:56.361Z,34.28
2023-05-19T07:38:23.487Z,34.18
2023-05-19T07:40:50.602Z,34.52
2023-05-19T07:43:17.717Z,34.44
2023-05-19T07:45:44.822Z,34.14
2023-05-19T07:48:12.008Z,34.05
2023-05-19T07:50:39.229Z,33.52
2023-05-19T07:53:06.382Z,33.55
2023-05-19T07:55:33.541Z,33.56
2023-05-19T07:58:00.957Z,33.65
2023-05-19T08:00:28.506Z,34.08
2023-05-19T08:02:57.297Z,34.21
2023-05-19T08:05:26.140Z,33.93
2023-05-19T08:07:53.353Z,33.19
2023-05-19T08:10:20.437Z,32.92
2023-05-19T08:12:47.520Z,33.15
2023-05-19T08:15:14.634Z,32.76
2023-05-19T08:17:41.772Z,33.28
2023-05-19T08:20:10.396Z,33.26
2023-05-19T08:22:37.624Z,33.52
2023-05-19T08:25:06.480Z,33.36
2023-05-19T08:27:33.772Z,33.78
2023-05-19T08:30:00.968Z,34.37
2023-05-19T08:32:28.164Z,35.80
2023-05-19T08:34:55.354Z,38.29
2023-05-19T08:37:22.927Z,38.75
2023-05-19T08:39:51.773Z,39.44
2023-05-19T08:42:19.334Z,40.02
2023-05-19T08:44:46.480Z,40.88
2023-05-19T08:47:14.061Z,42.58
2023-05-19T08:49:45.523Z,45.26
2023-05-19T08:52:22.286Z,47.18
2023-05-19T08:55:09.790Z,48.42
2023-05-19T08:57:37.167Z,49.63
2023-05-19T09:00:12.384Z,50.86
2023-05-19T09:02:50.433Z,51.62
2023-05-19T09:05:27.051Z,52.06
2023-05-19T09:07:54.377Z,52.81
2023-05-19T09:10:21.558Z,54.23
2023-05-19T09:12:49.832Z,54.34
2023-05-19T09:15:18.983Z,53.40
2023-05-19T09:17:48.280Z,54.16
2023-05-19T09:20:17.052Z,55.25
2023-05-19T09:22:47.671Z,55.65
2023-05-19T09:25:18.373Z,54.61
2023-05-19T09:27:46.982Z,53.11
2023-05-19T09:30:15.297Z,51.41
2023-05-19T09:32:43.270Z,49.50
2023-05-19T09:35:11.805Z,48.80
2023-05-19T09:37:42.225Z,47.55
2023-05-19T09:40:11.360Z,47.19
2023-05-19T09:42:42.431Z,45.96
2023-05-19T09:45:09.902Z,44.70
2023-05-19T09:47:38.493Z,43.75
2023-05-19T09:50:08.179Z,42.52
2023-05-19T09:52:36.438Z,41.14
2023-05-19T09:55:05.730Z,39.53
2023-05-19T09:57:40.279Z,38.89
2023-05-19T10:00:20.968Z,38.50
2023-05-19T10:02:48.295Z,38.18
2023-05-19T10:05:17.725Z,38.25
2023-05-19T10:07:45.943Z,38.13
2023-05-19T10:10:14.165Z,38.38
2023-05-19T10:12:41.446Z,37.83
2023-05-19T10:15:19.232Z,37.83
2023-05-19T10:17:47.833Z,36.76
2023-05-19T10:20:16.202Z,36.23
2023-05-19T10:22:44.337Z,34.95
2023-05-19T10:25:13.158Z,34.97
2023-05-19T10:27:45.268Z,34.41
2023-05-19T10:30:16.337Z,34.46
2023-05-19T10:32:44.410Z,34.64
2023-05-19T10:35:42.405Z,33.14
2023-05-19T10:38:43.689Z,32.34
2023-05-19T10:41:13.444Z,31.76
2023-05-19T10:43:59.379Z,31.46
2023-05-19T10:46:27.248Z,31.79
2023-05-19T10:48:54.414Z,31.28
2023-05-19T10:51:21.639Z,30.08
2023-05-19T10:53:50.245Z,29.82
2023-05-19T10:56:36.154Z,30.09
2023-05-19T10:59:05.079Z,29.02
2023-05-19T11:01:36.282Z,28.56
2023-05-19T11:04:07.861Z,28.90
2023-05-19T11:06:38.314Z,29.25
2023-05-19T11:09:16.369Z,28.94
2023-05-19T11:11:48.294Z,29.16
2023-05-19T11:14:20.382Z,29.13
2023-05-19T11:16:48.569Z,28.54
2023-05-19T11:19:20.846Z,28.63
2023-05-19T11:21:53.009Z,28.75
2023-05-19T11:24:44.752Z,28.75
2023-05-19T11:27:21.672Z,29.20
2023-05-19T11:29:49.090Z,28.86
2023-05-19T11:32:16.412Z,28.38
2023-05-19T11:34:44.815Z,28.43
2023-05-19T11:37:12.143Z,28.72
2023-05-19T11:39:39.852Z,28.75
2023-05-19T11:42:08.863Z,28.31
2023-05-19T11:44:37.231Z,28.33
2023-05-19T11:47:05.372Z,28.27
2023-05-19T11:49:32.736Z,28.27
2023-05-19T11:52:03.453Z,28.13
2023-05-19T11:54:37.234Z,28.00
2023-05-19T11:57:04.764Z,27.86
2023-05-19T11:59:34.223Z,27.90
2023-05-19T12:02:17.383Z,27.53
2023-05-19T12:04:44.603Z,27.91
2023-05-19T12:07:13.197Z,27.95
2023-05-19T12:09:40.598Z,27.33
2023-05-19T12:12:08.099Z,27.56
2023-05-19T12:14:36.029Z,27.55
2023-05-19T12:17:17.168Z,28.03
2023-05-19T12:19:44.734Z,29.20
2023-05-19T12:22:11.848Z,30.15
2023-05-19T12:24:38.979Z,29.24
2023-05-19T12:27:26.829Z,30.24
2023-05-19T12:29:55.067Z,30.54
2023-05-19T12:32:25.871Z,29.96
2023-05-19T12:34:53.586Z,28.55
2023-05-19T12:37:21.322Z,27.48
2023-05-19T12:39:51.993Z,27.43
2023-05-19T12:42:20.098Z,27.45
2023-05-19T12:44:48.588Z,27.77
2023-05-19T12:47:16.220Z,27.65
2023-05-19T12:49:56.716Z,27.84
2023-05-19T12:52:24.216Z,28.12
2023-05-19T12:55:07.962Z,28.26
2023-05-19T12:57:37.623Z,29.09
2023-05-19T13:00:14.076Z,29.28
2023-05-19T13:03:00.631Z,29.32
2023-05-19T13:05:30.941Z,29.25
2023-05-19T13:08:00.726Z,29.38
2023-05-19T13:10:31.523Z,28.34
2023-05-19T13:13:00.311Z,28.33
2023-05-19T13:15:34.674Z,29.81
2023-05-19T13:18:03.581Z,30.88
2023-05-19T13:20:31.125Z,31.47
2023-05-19T13:22:58.557Z,30.78
2023-05-19T13:25:26.548Z,30.02
2023-05-19T13:27:54.583Z,31.57
2023-05-19T13:30:22.140Z,33.92
2023-05-19T13:32:49.268Z,33.09
2023-05-19T13:35:16.380Z,32.85
2023-05-19T13:37:43.656Z,33.35
2023-05-19T13:40:11.133Z,34.39
2023-05-19T13:42:38.276Z,35.21
2023-05-19T13:45:05.689Z,36.46
2023-05-19T13:47:32.957Z,37.81
2023-05-19T13:50:00.126Z,38.02
2023-05-19T13:52:29.069Z,36.34
2023-05-19T13:54:57.662Z,36.55
2023-05-19T13:57:25.687Z,34.40
2023-05-19T14:00:01.972Z,32.64
2023-05-19T14:02:39.700Z,34.19
2023-05-19T14:05:07.639Z,35.06
2023-05-19T14:07:35.395Z,34.53
2023-05-19T14:10:04.067Z,34.29
2023-05-19T14:12:43.162Z,33.97
2023-05-19T14:15:14.743Z,32.92
2023-05-19T14:17:42.919Z,32.71
2023-05-19T14:20:10.693Z,30.85
2023-05-19T14:22:38.545Z,29.65
2023-05-19T14:25:06.559Z,27.74
2023-05-19T14:27:33.609Z,26.22
2023-05-19T14:30:00.851Z,25.26
2023-05-19T14:32:30.268Z,24.38
2023-05-19T14:34:57.767Z,24.46
2023-05-19T14:37:27.700Z,26.45
2023-05-19T14:39:55.123Z,26.63
2023-05-19T14:42:22.136Z,26.78
2023-05-19T14:44:49.227Z,26.53
2023-05-19T14:47:16.421Z,27.85
2023-05-19T14:49:43.572Z,29.39
2023-05-19T14:52:10.696Z,30.38
2023-05-19T14:54:37.817Z,31.19
2023-05-19T14:57:07.378Z,31.67
2023-05-19T14:59:38.754Z,31.82
2023-05-19T15:02:06.202Z,31.66
2023-05-19T15:04:33.289Z,32.44
2023-05-19T15:09:30.799Z,33.14
2023-05-19T15:11:58.255Z,34.74
2023-05-19T15:14:26.214Z,36.29
2023-05-19T15:16:54.882Z,36.57
2023-05-19T15:19:22.051Z,36.41
2023-05-19T15:21:50.810Z,36.86
2023-05-19T15:24:18.047Z,37.37
2023-05-19T15:26:45.513Z,37.86
2023-05-19T15:29:12.539Z,37.93
2023-05-19T15:31:39.737Z,38.47
2023-05-19T15:34:06.836Z,39.07
2023-05-19T15:36:33.903Z,38.88
2023-05-19T15:39:01.013Z,38.44
2023-05-19T15:41:28.085Z,38.84
2023-05-19T15:43:55.351Z,39.26
2023-05-19T15:46:23.033Z,40.08
2023-05-19T15:48:50.169Z,40.72
2023-05-19T15:51:17.275Z,41.03
2023-05-19T15:53:44.402Z,41.72
2023-05-19T15:56:11.608Z,42.14
2023-05-19T15:58:38.643Z,42.70
2023-05-19T16:01:05.966Z,43.01
2023-05-19T16:03:33.619Z,42.79
2023-05-19T16:06:01.228Z,43.52
2023-05-19T16:08:28.843Z,43.34
2023-05-19T16:10:56.462Z,43.84
2023-05-19T16:13:23.980Z,44.14
2023-05-19T16:15:51.071Z,44.12
2023-05-19T16:18:18.466Z,44.34
2023-05-19T16:20:55.352Z,44.92
2023-05-19T16:23:27.597Z,45.20
2023-05-19T16:25:55.073Z,45.29
2023-05-19T16:28:24.470Z,45.41
2023-05-19T16:30:51.944Z,45.50
2023-05-19T16:33:19.029Z,45.28
2023-05-19T16:35:46.188Z,44.73
2023-05-19T16:38:13.267Z,44.54
2023-05-19T16:40:40.386Z,44.10
2023-05-19T16:43:07.458Z,43.92
2023-05-19T16:45:34.621Z,45.33
2023-05-19T16:48:01.957Z,46.74
2023-05-19T16:50:29.211Z,48.06
2023-05-19T16:52:56.309Z,52.50
2023-05-19T16:55:25.481Z,55.51
2023-05-19T16:57:52.817Z,57.84
2023-05-19T17:00:20.137Z,59.64
2023-05-19T17:02:47.339Z,59.76
2023-05-19T17:05:14.506Z,58.60
2023-05-19T17:07:41.761Z,52.58
2023-05-19T17:10:09.477Z,45.85
2023-05-19T17:12:37.077Z,44.17
2023-05-19T17:15:04.597Z,45.14
2023-05-19T17:17:31.723Z,44.42
2023-05-19T17:19:58.849Z,44.27
2023-05-19T17:22:26.658Z,43.90
2023-05-19T17:24:54.891Z,44.91
2023-05-19T17:27:22.800Z,45.69
2023-05-19T17:29:49.878Z,45.89
2023-05-19T17:32:18.135Z,46.24
2023-05-19T17:34:45.264Z,46.44
2023-05-19T17:37:12.501Z,46.32
2023-05-19T17:39:39.783Z,45.87
2023-05-19T17:42:07.169Z,47.86
2023-05-19T17:44:34.328Z,51.10
2023-05-19T17:47:02.595Z,53.73
2023-05-19T17:49:30.699Z,51.82
2023-05-19T17:51:58.568Z,51.77
2023-05-19T17:54:26.587Z,52.33
2023-05-19T17:56:53.763Z,53.54
2023-05-19T17:59:21.404Z,54.94
2023-05-19T18:01:49.364Z,55.95
2023-05-19T18:04:20.115Z,57.07
2023-05-19T18:06:47.629Z,58.18
2023-05-19T18:09:15.279Z,58.40
2023-05-19T18:11:42.609Z,59.19
2023-05-19T18:14:10.077Z,59.79
2023-05-19T18:16:38.233Z,60.18
2023-05-19T18:19:06.949Z,60.26
2023-05-19T18:21:34.565Z,60.00
2023-05-19T18:24:04.458Z,59.59
2023-05-19T18:26:31.863Z,59.22
2023-05-19T18:29:02.773Z,59.33
2023-05-19T18:31:29.938Z,61.26
2023-05-19T18:33:57.158Z,63.27
2023-05-19T18:36:26.846Z,64.33
2023-05-19T18:38:55.344Z,65.40
2023-05-19T18:41:22.478Z,66.17
2023-05-19T18:43:49.737Z,66.17
2023-05-19T18:46:20.484Z,66.24
2023-05-19T18:48:49.949Z,66.76
2023-05-19T18:51:18.885Z,66.58
2023-05-19T18:53:48.811Z,66.18
2023-05-19T18:56:23.267Z,65.93
2023-05-19T18:58:50.365Z,65.75
2023-05-19T19:01:17.521Z,65.20
2023-05-19T19:03:46.928Z,65.10
2023-05-19T19:06:14.166Z,65.33
2023-05-19T19:08:41.478Z,65.43
2023-05-19T19:11:11.381Z,65.48
2023-05-19T19:13:38.615Z,66.30
2023-05-19T19:16:07.035Z,66.68
2023-05-19T19:18:37.409Z,66.51
2023-05-19T19:21:05.964Z,66.19
2023-05-19T19:23:33.506Z,66.17
2023-05-19T19:26:00.960Z,66.49
2023-05-19T19:28:28.654Z,66.71
2023-05-19T19:30:55.770Z,67.46
2023-05-19T19:33:22.992Z,67.71
2023-05-19T19:35:50.060Z,68.11
2023-05-19T19:38:17.278Z,68.33
2023-05-19T19:40:44.601Z,68.26
2023-05-19T19:43:12.232Z,67.78
2023-05-19T19:45:39.793Z,67.47
2023-05-19T19:48:07.470Z,67.07
2023-05-19T19:50:34.749Z,66.71
2023-05-19T19:53:02.176Z,66.26
2023-05-19T19:55:30.837Z,66.04
2023-05-19T19:57:58.036Z,65.60
2023-05-19T20:00:25.725Z,64.83
2023-05-19T20:03:04.612Z,64.88
2023-05-19T20:05:32.921Z,65.49
2023-05-19T20:08:00.103Z,65.85
2023-05-19T20:10:27.191Z,66.24
2023-05-19T20:12:54.323Z,66.46
2023-05-19T20:15:21.632Z,66.54
2023-05-19T20:17:49.883Z,66.13
2023-05-19T20:20:17.043Z,65.94
2023-05-19T20:22:46.061Z,66.07
2023-05-19T20:25:13.118Z,66.46
2023-05-19T20:27:40.692Z,67.03
2023-05-19T20:30:08.348Z,67.90
2023-05-19T20:32:35.835Z,68.80
2023-05-19T20:35:02.932Z,69.49
2023-05-19T20:37:29.972Z,68.99
2023-05-19T20:39:56.961Z,68.78
2023-05-19T20:42:24.507Z,68.44
2023-05-19T20:44:52.189Z,68.61
2023-05-19T20:47:19.443Z,68.68
2023-05-19T20:49:46.651Z,68.89
2023-05-19T20:52:14.877Z,69.02
2023-05-19T20:54:42.221Z,68.67
2023-05-19T20:57:09.607Z,68.61
2023-05-19T20:59:36.713Z,68.50
2023-05-19T21:02:04.498Z,68.48
2023-05-19T21:04:33.064Z,68.37
2023-05-19T21:07:00.742Z,68.31
2023-05-19T21:09:27.878Z,68.19
2023-05-19T21:11:54.893Z,68.14
2023-05-19T21:14:22.088Z,68.17
2023-05-19T21:16:50.037Z,68.21
2023-05-19T21:19:17.212Z,68.43
2023-05-19T21:21:45.091Z,68.31
2023-05-19T21:24:13.085Z,68.62
2023-05-19T21:26:42.034Z,68.64
2023-05-19T21:29:10.238Z,67.12
2023-05-19T21:31:37.363Z,67.36
2023-05-19T21:34:06.190Z,67.14
2023-05-19T21:36:35.550Z,67.64
2023-05-19T21:39:03.791Z,67.96
2023-05-19T21:41:32.543Z,68.17
2023-05-19T21:43:59.638Z,68.39
2023-05-19T21:46:29.164Z,67.58
2023-05-19T21:48:56.413Z,67.93
2023-05-19T21:51:23.442Z,68.51
2023-05-19T21:53:50.727Z,68.80
2023-05-19T21:56:17.792Z,69.04
2023-05-19T21:58:45.167Z,68.82
2023-05-19T22:01:13.393Z,68.91
2023-05-19T22:03:40.451Z,69.02
2023-05-19T22:06:07.744Z,69.18
2023-05-19T22:08:34.899Z,69.31
2023-05-19T22:11:02.189Z,69.62
2023-05-19T22:13:29.488Z,70.53
2023-05-19T22:15:57.800Z,71.46
2023-05-19T22:18:25.305Z,72.69
2023-05-19T22:20:52.609Z,73.90
2023-05-19T22:23:19.664Z,75.12
2023-05-19T22:25:46.677Z,75.92
2023-05-19T22:28:13.809Z,77.01
2023-05-19T22:30:42.601Z,77.77
2023-05-19T22:33:11.436Z,78.70
2023-05-19T22:35:38.962Z,79.25
2023-05-19T22:38:07.526Z,79.57
2023-05-19T22:40:38.085Z,80.11
2023-05-19T22:43:05.848Z,80.51
2023-05-19T22:45:34.547Z,80.51
2023-05-19T22:48:02.338Z,80.06
2023-05-19T22:50:29.408Z,79.60
2023-05-19T22:52:56.651Z,79.10
2023-05-19T22:55:23.930Z,78.40
2023-05-19T22:57:51.304Z,77.77
2023-05-19T23:00:21.389Z,77.25
2023-05-19T23:02:48.451Z,76.57
2023-05-19T23:05:15.822Z,76.12
2023-05-19T23:07:42.933Z,75.60
2023-05-19T23:10:10.389Z,75.15
2023-05-19T23:12:37.419Z,75.24
2023-05-19T23:15:04.918Z,75.15
2023-05-19T23:17:32.104Z,74.77
2023-05-19T23:19:59.157Z,74.66
2023-05-19T23:22:26.202Z,74.65
2023-05-19T23:24:53.236Z,74.03
2023-05-19T23:27:20.236Z,73.94
2023-05-19T23:29:49.633Z,74.09
2023-05-19T23:32:16.812Z,74.43
2023-05-19T23:34:43.861Z,74.48
2023-05-19T23:37:11.765Z,74.49
2023-05-19T23:39:38.834Z,74.63
2023-05-19T23:42:06.209Z,75.02
2023-05-19T23:44:33.244Z,74.94
2023-05-19T23:47:00.428Z,74.80
2023-05-19T23:49:27.556Z,74.68
2023-05-19T23:51:54.785Z,75.08
2023-05-19T23:54:21.871Z,74.96
2023-05-19T23:56:48.899Z,75.21
2023-05-19T23:59:15.923Z,75.17
